createdAt,value
2023-05-20T00:00:45.989Z,4.72
2023-05-20T00:03:12.738Z,3.72
2023-05-20T00:05:39.890Z,3.20
2023-05-20T00:08:09.681Z,2.70
2023-05-20T00:10:36.522Z,3.75
2023-05-20T00:13:03.429Z,3.30
2023-05-20T00:15:32.086Z,3.67
2023-05-20T00:18:03.238Z,3.03
2023-05-20T00:20:32.221Z,3.22
2023-05-20T00:23:00.349Z,3.60
2023-05-20T00:25:27.406Z,3.42
2023-05-20T00:27:54.040Z,3.30
2023-05-20T00:30:21.840Z,3.40
2023-05-20T00:32:48.654Z,3.22
2023-05-20T00:35:16.565Z,3.55
2023-05-20T00:37:43.676Z,3.20
2023-05-20T00:40:11.713Z,3.65
2023-05-20T00:42:39.196Z,4.00
2023-05-20T00:45:06.528Z,3.72
2023-05-20T00:47:36.682Z,3.28
2023-05-20T00:50:05.560Z,3.40
2023-05-20T00:52:33.241Z,3.60
2023-05-20T00:55:01.514Z,4.05
2023-05-20T00:57:30.240Z,3.08
2023-05-20T00:59:57.133Z,3.35
2023-05-20T01:02:24.117Z,3.30
2023-05-20T01:04:51.066Z,3.53
2023-05-20T01:07:19.327Z,2.75
2023-05-20T01:09:46.282Z,3.00
2023-05-20T01:12:25.257Z,3.83
2023-05-20T01:15:00.481Z,3.75
2023-05-20T01:17:31.279Z,3.30
2023-05-20T01:19:59.958Z,3.47
2023-05-20T01:22:31.330Z,4.32
2023-05-20T01:24:57.972Z,3.10
2023-05-20T01:27:25.970Z,2.72
2023-05-20T01:29:53.206Z,3.17
2023-05-20T01:32:27.932Z,2.70
2023-05-20T01:34:56.029Z,3.53
2023-05-20T01:37:25.413Z,4.47
2023-05-20T01:39:53.828Z,3.85
2023-05-20T01:42:22.575Z,3.63
2023-05-20T01:44:49.458Z,4.00
2023-05-20T01:47:16.149Z,3.80
2023-05-20T01:49:42.854Z,3.60
2023-05-20T01:52:09.536Z,4.20
2023-05-20T01:54:37.668Z,4.82
2023-05-20T01:57:04.970Z,4.25
2023-05-20T01:59:32.885Z,3.45
2023-05-20T02:01:59.630Z,3.75
2023-05-20T02:04:26.361Z,4.25
2023-05-20T02:06:53.066Z,3.63
2023-05-20T02:09:19.795Z,3.45
2023-05-20T02:11:46.468Z,4.78
2023-05-20T02:14:13.217Z,3.95
2023-05-20T02:16:39.924Z,4.53
2023-05-20T02:19:12.819Z,4.88
2023-05-20T02:21:42.609Z,3.45
2023-05-20T02:24:10.649Z,3.70
2023-05-20T02:26:37.274Z,5.68
2023-05-20T02:29:05.188Z,4.40
2023-05-20T02:31:33.004Z,3.70
2023-05-20T02:33:59.747Z,3.70
2023-05-20T02:36:29.196Z,4.38
2023-05-20T02:38:58.177Z,4.70
2023-05-20T02:41:24.863Z,4.93
2023-05-20T02:43:51.526Z,3.53
2023-05-20T02:46:19.753Z,4.28
2023-05-20T02:48:46.448Z,4.38
2023-05-20T02:51:14.497Z,4.25
2023-05-20T02:53:42.333Z,4.30
2023-05-20T02:56:11.402Z,4.35
2023-05-20T02:58:38.780Z,4.80
2023-05-20T03:01:05.668Z,3.97
2023-05-20T03:03:32.549Z,4.03
2023-05-20T03:05:59.361Z,4.68
2023-05-20T03:08:26.049Z,5.22
2023-05-20T03:10:52.679Z,3.40
2023-05-20T03:13:20.466Z,5.13
2023-05-20T03:15:47.247Z,4.40
2023-05-20T03:18:14.059Z,4.78
2023-05-20T03:20:41.671Z,3.92
2023-05-20T03:23:09.708Z,3.95
2023-05-20T03:25:37.563Z,3.63
2023-05-20T03:28:05.640Z,4.38
2023-05-20T03:30:34.388Z,4.68
2023-05-20T03:33:03.045Z,5.13
2023-05-20T03:35:31.273Z,4.45
2023-05-20T03:37:59.624Z,3.95
2023-05-20T03:40:27.532Z,4.47
2023-05-20T03:42:54.256Z,4.10
2023-05-20T03:45:21.133Z,4.13
2023-05-20T03:47:47.819Z,3.92
2023-05-20T03:50:14.609Z,4.13
2023-05-20T03:52:41.281Z,3.92
2023-05-20T03:55:08.337Z,4.10
2023-05-20T03:57:36.720Z,3.80
2023-05-20T04:00:10.201Z,4.72
2023-05-20T04:02:38.915Z,4.28
2023-05-20T04:05:09.973Z,3.42
2023-05-20T04:07:38.033Z,3.60
2023-05-20T04:10:05.527Z,3.65
2023-05-20T04:12:32.768Z,4.85
2023-05-20T04:15:01.397Z,5.30
2023-05-20T04:17:31.636Z,4.18
2023-05-20T04:20:00.145Z,4.70
2023-05-20T04:22:27.570Z,4.22
2023-05-20T04:24:55.614Z,3.72
2023-05-20T04:27:22.265Z,5.00
2023-05-20T04:29:50.253Z,3.72
2023-05-20T04:32:19.164Z,4.28
2023-05-20T04:34:48.134Z,4.28
2023-05-20T04:37:14.804Z,3.97
2023-05-20T04:39:44.920Z,4.72
2023-05-20T04:42:11.678Z,4.35
2023-05-20T04:44:38.694Z,4.70
2023-05-20T04:47:08.049Z,4.72
2023-05-20T04:49:34.744Z,4.82
2023-05-20T04:52:01.392Z,5.18
2023-05-20T04:54:29.152Z,4.05
2023-05-20T04:56:58.200Z,4.00
2023-05-20T04:59:25.029Z,5.00
2023-05-20T05:01:51.828Z,4.40
2023-05-20T05:04:18.747Z,4.18
2023-05-20T05:06:45.463Z,4.38
2023-05-20T05:09:14.990Z,4.70
2023-05-20T05:11:41.708Z,4.50
2023-05-20T05:14:08.400Z,4.43
2023-05-20T05:16:35.156Z,4.95
2023-05-20T05:19:02.078Z,4.68
2023-05-20T05:21:30.289Z,4.13
2023-05-20T05:23:59.252Z,5.03
2023-05-20T05:26:27.915Z,4.43
2023-05-20T05:28:55.313Z,4.80
2023-05-20T05:31:22.188Z,4.35
2023-05-20T05:33:49.008Z,3.70
2023-05-20T05:36:16.838Z,4.88
2023-05-20T05:38:45.638Z,4.55
2023-05-20T05:41:12.330Z,3.75
2023-05-20T05:43:39.022Z,4.47
2023-05-20T05:46:06.029Z,4.43
2023-05-20T05:48:32.888Z,4.15
2023-05-20T05:50:59.536Z,4.40
2023-05-20T05:53:26.312Z,3.25
2023-05-20T05:55:54.480Z,4.05
2023-05-20T05:58:21.332Z,3.63
2023-05-20T06:00:51.617Z,4.38
2023-05-20T06:03:18.786Z,4.03
2023-05-20T06:05:47.402Z,4.47
2023-05-20T06:08:14.267Z,4.47
2023-05-20T06:10:41.023Z,4.65
2023-05-20T06:13:07.786Z,3.97
2023-05-20T06:15:34.765Z,4.30
2023-05-20T06:18:01.709Z,4.53
2023-05-20T06:20:28.456Z,4.30
2023-05-20T06:22:56.401Z,4.68
2023-05-20T06:25:24.256Z,4.28
2023-05-20T06:27:51.237Z,3.97
2023-05-20T06:30:19.401Z,4.32
2023-05-20T06:32:46.739Z,4.40
2023-05-20T06:35:13.511Z,3.92
2023-05-20T06:37:40.366Z,4.55
2023-05-20T06:40:07.652Z,4.47
2023-05-20T06:42:34.311Z,3.65
2023-05-20T06:45:00.974Z,3.80
2023-05-20T06:47:27.704Z,4.95
2023-05-20T06:49:54.370Z,4.32
2023-05-20T06:52:21.017Z,4.10
2023-05-20T06:54:48.918Z,4.38
2023-05-20T06:57:16.215Z,3.50
2023-05-20T06:59:42.890Z,4.47
2023-05-20T07:02:11.274Z,4.00
2023-05-20T07:04:38.050Z,3.88
2023-05-20T07:07:04.788Z,4.18
2023-05-20T07:09:32.591Z,3.95
2023-05-20T07:11:59.329Z,3.88
2023-05-20T07:14:27.188Z,4.28
2023-05-20T07:16:55.145Z,4.38
2023-05-20T07:19:21.831Z,4.18
2023-05-20T07:21:50.114Z,4.07
2023-05-20T07:24:17.648Z,4.10
2023-05-20T07:26:44.593Z,3.97
2023-05-20T07:29:11.388Z,4.47
2023-05-20T07:31:39.655Z,4.45
2023-05-20T07:34:06.692Z,4.53
2023-05-20T07:36:33.436Z,3.75
2023-05-20T07:39:04.244Z,3.60
2023-05-20T07:41:31.972Z,4.50
2023-05-20T07:43:58.657Z,4.00
2023-05-20T07:46:25.534Z,3.92
2023-05-20T07:48:52.306Z,3.80
2023-05-20T07:51:19.120Z,3.55
2023-05-20T07:53:45.825Z,3.92
2023-05-20T07:56:13.714Z,3.47
2023-05-20T07:58:43.842Z,3.92
2023-05-20T08:01:10.550Z,3.95
2023-05-20T08:03:37.401Z,3.63
2023-05-20T08:06:04.354Z,4.13
2023-05-20T08:08:31.012Z,3.63
2023-05-20T08:10:59.100Z,3.95
2023-05-20T08:13:25.737Z,3.88
2023-05-20T08:15:54.927Z,3.80
2023-05-20T08:18:22.246Z,3.55
2023-05-20T08:20:48.983Z,4.00
2023-05-20T08:23:15.737Z,3.33
2023-05-20T08:25:42.433Z,3.42
2023-05-20T08:28:10.703Z,3.80
2023-05-20T08:30:37.362Z,2.97
2023-05-20T08:33:05.987Z,3.55
2023-05-20T08:35:32.885Z,3.67
2023-05-20T08:38:00.877Z,3.08
2023-05-20T08:40:27.812Z,3.60
2023-05-20T08:42:55.139Z,2.97
2023-05-20T08:45:26.548Z,2.83
2023-05-20T08:47:53.810Z,2.67
2023-05-20T08:50:22.225Z,2.50
2023-05-20T08:52:50.630Z,2.75
2023-05-20T08:55:54.102Z,2.83
2023-05-20T08:58:22.212Z,3.13
2023-05-20T09:00:49.727Z,2.83
2023-05-20T09:03:16.437Z,3.17
2023-05-20T09:05:43.239Z,2.92
2023-05-20T09:08:11.885Z,3.22
2023-05-20T09:10:41.889Z,2.35
2023-05-20T09:13:11.220Z,2.90
2023-05-20T09:15:39.086Z,2.67
2023-05-20T09:18:09.260Z,2.30
2023-05-20T09:20:37.727Z,2.90
2023-05-20T09:23:06.612Z,2.42
2023-05-20T09:25:35.335Z,2.53
2023-05-20T09:28:05.862Z,3.00
2023-05-20T09:30:33.212Z,2.47
2023-05-20T09:33:01.746Z,2.70
2023-05-20T09:35:28.659Z,2.65
2023-05-20T09:37:58.075Z,2.50
2023-05-20T09:40:29.033Z,2.40
2023-05-20T09:43:12.441Z,2.60
2023-05-20T09:45:39.773Z,2.97
2023-05-20T09:48:10.890Z,2.72
2023-05-20T09:50:38.489Z,2.58
2023-05-20T09:53:06.603Z,2.60
2023-05-20T09:55:35.497Z,2.63
2023-05-20T09:58:03.575Z,2.88
2023-05-20T10:00:30.816Z,2.83
2023-05-20T10:02:58.465Z,2.53
2023-05-20T10:05:33.495Z,2.78
2023-05-20T10:08:25.993Z,2.78
2023-05-20T10:10:56.991Z,2.55
2023-05-20T10:13:55.569Z,2.22
2023-05-20T10:16:40.750Z,2.78
2023-05-20T10:19:27.384Z,2.80
2023-05-20T10:22:09.390Z,2.67
2023-05-20T10:24:38.352Z,2.25
2023-05-20T10:27:09.244Z,2.60
2023-05-20T10:29:45.124Z,2.72
2023-05-20T10:32:11.973Z,2.47
2023-05-20T10:34:49.438Z,1.98
2023-05-20T10:37:28.079Z,2.50
2023-05-20T10:40:10.505Z,2.22
2023-05-20T10:42:37.661Z,2.65
2023-05-20T10:45:05.338Z,2.17
2023-05-20T10:47:32.461Z,2.55
2023-05-20T10:49:59.379Z,2.60
2023-05-20T10:52:26.201Z,2.63
2023-05-20T10:54:57.667Z,2.35
2023-05-20T10:57:27.729Z,2.40
2023-05-20T10:59:55.224Z,2.38
2023-05-20T11:02:27.304Z,2.30
2023-05-20T11:04:59.485Z,1.90
2023-05-20T11:07:32.071Z,2.08
2023-05-20T11:10:00.629Z,2.42
2023-05-20T11:12:28.194Z,1.90
2023-05-20T11:14:55.355Z,1.80
2023-05-20T11:17:23.196Z,2.25
2023-05-20T11:19:50.979Z,2.38
2023-05-20T11:22:17.754Z,1.92
2023-05-20T11:24:44.446Z,1.92
2023-05-20T11:27:11.142Z,2.00
2023-05-20T11:29:38.877Z,2.50
2023-05-20T11:32:07.409Z,2.22
2023-05-20T11:34:38.359Z,1.98
2023-05-20T11:37:09.643Z,2.30
2023-05-20T11:39:37.658Z,2.45
2023-05-20T11:42:06.252Z,2.65
2023-05-20T11:44:33.268Z,2.38
2023-05-20T11:47:05.049Z,2.30
2023-05-20T11:49:40.062Z,1.98
2023-05-20T11:52:09.226Z,2.47
2023-05-20T11:54:36.526Z,2.20
2023-05-20T11:57:05.691Z,2.75
2023-05-20T11:59:33.723Z,2.28
2023-05-20T12:02:00.361Z,2.20
2023-05-20T12:04:27.361Z,1.73
2023-05-20T12:06:54.019Z,2.38
2023-05-20T12:09:20.684Z,2.30
2023-05-20T12:11:47.368Z,2.22
2023-05-20T12:14:14.094Z,2.38
2023-05-20T12:16:40.900Z,2.00
2023-05-20T12:19:08.816Z,2.13
2023-05-20T12:21:35.687Z,1.75
2023-05-20T12:24:05.298Z,1.58
2023-05-20T12:26:33.642Z,2.17
2023-05-20T12:29:00.355Z,2.42
2023-05-20T12:31:28.144Z,1.95
2023-05-20T12:33:54.845Z,3.50
2023-05-20T12:36:21.534Z,1.90
2023-05-20T12:38:48.202Z,1.92
2023-05-20T12:41:14.996Z,2.00
2023-05-20T12:43:41.666Z,1.80
2023-05-20T12:46:08.733Z,2.00
2023-05-20T12:48:35.655Z,2.20
2023-05-20T12:51:02.416Z,2.22
2023-05-20T12:53:29.058Z,2.33
2023-05-20T12:55:55.845Z,1.88
2023-05-20T12:58:26.250Z,2.00
2023-05-20T13:00:54.333Z,1.98
2023-05-20T13:03:21.223Z,1.95
2023-05-20T13:05:47.987Z,2.10
2023-05-20T13:08:14.969Z,2.65
2023-05-20T13:10:41.851Z,2.30
2023-05-20T13:13:08.513Z,1.98
2023-05-20T13:15:37.062Z,2.42
2023-05-20T13:18:07.448Z,2.13
2023-05-20T13:20:34.873Z,1.80
2023-05-20T13:23:01.911Z,2.33
2023-05-20T13:25:29.158Z,2.30
2023-05-20T13:27:56.063Z,2.47
2023-05-20T13:30:22.723Z,2.03
2023-05-20T13:32:50.949Z,1.98
2023-05-20T13:35:19.402Z,2.42
2023-05-20T13:37:47.378Z,1.80
2023-05-20T13:40:15.410Z,2.17
2023-05-20T13:42:42.056Z,2.00
2023-05-20T13:45:10.369Z,2.15
2023-05-20T13:47:37.123Z,2.22
2023-05-20T13:50:04.187Z,2.10
2023-05-20T13:52:30.898Z,1.85
2023-05-20T13:54:57.543Z,2.25
2023-05-20T13:57:24.274Z,1.88
2023-05-20T13:59:50.945Z,1.90
2023-05-20T14:02:18.075Z,1.98
2023-05-20T14:04:46.986Z,1.88
2023-05-20T14:07:14.301Z,1.90
2023-05-20T14:09:41.326Z,1.98
2023-05-20T14:12:08.105Z,2.15
2023-05-20T14:14:36.037Z,2.25
2023-05-20T14:17:02.750Z,2.03
2023-05-20T14:19:30.113Z,2.15
2023-05-20T14:21:58.907Z,1.65
2023-05-20T14:24:25.605Z,1.95
2023-05-20T14:26:52.271Z,1.88
2023-05-20T14:29:19.524Z,1.98
2023-05-20T14:31:47.636Z,1.60
2023-05-20T14:34:15.756Z,1.77
2023-05-20T14:36:42.690Z,2.20
2023-05-20T14:39:09.814Z,2.22
2023-05-20T14:41:36.670Z,1.83
2023-05-20T14:44:03.381Z,1.80
2023-05-20T14:46:30.614Z,2.28
2023-05-20T14:48:57.289Z,2.05
2023-05-20T14:51:23.944Z,2.20
2023-05-20T14:53:50.722Z,1.73
2023-05-20T14:56:18.355Z,1.73
2023-05-20T14:58:45.660Z,2.05
2023-05-20T15:01:12.491Z,2.33
2023-05-20T15:03:39.336Z,1.80
2023-05-20T15:06:06.224Z,1.92
2023-05-20T15:08:34.220Z,2.03
2023-05-20T15:11:01.260Z,1.73
2023-05-20T15:13:29.162Z,2.10
2023-05-20T15:15:57.136Z,2.10
2023-05-20T15:18:23.873Z,2.38
2023-05-20T15:20:51.808Z,2.38
2023-05-20T15:23:18.714Z,2.40
2023-05-20T15:25:45.421Z,2.22
2023-05-20T15:28:12.073Z,2.42
2023-05-20T15:30:38.768Z,1.90
2023-05-20T15:33:06.856Z,2.30
2023-05-20T15:35:33.583Z,1.92
2023-05-20T15:38:01.412Z,2.17
2023-05-20T15:40:28.268Z,2.38
2023-05-20T15:42:55.038Z,2.60
2023-05-20T15:45:21.788Z,2.45
2023-05-20T15:47:48.619Z,2.25
2023-05-20T15:50:15.375Z,2.28
2023-05-20T15:52:42.114Z,2.35
2023-05-20T15:55:11.169Z,2.47
2023-05-20T15:57:39.602Z,2.13
2023-05-20T16:00:11.712Z,1.95
2023-05-20T16:02:40.396Z,2.45
2023-05-20T16:05:07.506Z,2.55
2023-05-20T16:07:34.177Z,2.22
2023-05-20T16:10:00.863Z,2.80
2023-05-20T16:12:28.721Z,2.53
2023-05-20T16:14:55.702Z,2.35
2023-05-20T16:17:22.469Z,2.38
2023-05-20T16:19:49.604Z,2.30
2023-05-20T16:22:17.956Z,2.08
2023-05-20T16:24:45.997Z,2.40
2023-05-20T16:27:12.675Z,1.85
2023-05-20T16:29:39.976Z,2.30
2023-05-20T16:32:07.218Z,2.20
2023-05-20T16:34:34.083Z,2.40
2023-05-20T16:37:00.905Z,2.25
2023-05-20T16:39:27.685Z,2.70
2023-05-20T16:41:54.404Z,2.70
2023-05-20T16:44:21.120Z,2.45
2023-05-20T16:46:47.753Z,2.58
2023-05-20T16:49:15.932Z,2.45
2023-05-20T16:51:42.575Z,2.28
2023-05-20T16:54:09.332Z,2.60
2023-05-20T16:56:37.219Z,2.30
2023-05-20T16:59:03.955Z,2.67
2023-05-20T17:01:30.752Z,2.30
2023-05-20T17:03:57.507Z,1.85
2023-05-20T17:06:24.696Z,2.20
2023-05-20T17:08:51.461Z,2.75
2023-05-20T17:11:18.146Z,2.22
2023-05-20T17:13:44.791Z,2.28
2023-05-20T17:16:12.199Z,2.55
2023-05-20T17:18:38.999Z,2.67
2023-05-20T17:21:06.014Z,2.20
2023-05-20T17:23:32.684Z,2.10
2023-05-20T17:25:59.392Z,2.67
2023-05-20T17:28:27.493Z,2.50
2023-05-20T17:30:54.154Z,2.30
2023-05-20T17:33:22.458Z,2.33
2023-05-20T17:35:49.174Z,2.28
2023-05-20T17:38:16.113Z,2.00
2023-05-20T17:40:42.795Z,2.28
2023-05-20T17:43:09.480Z,2.08
2023-05-20T17:45:36.253Z,2.40
2023-05-20T17:48:08.769Z,2.22
2023-05-20T17:50:38.737Z,1.90
2023-05-20T17:53:05.467Z,2.70
2023-05-20T17:55:32.945Z,2.22
2023-05-20T17:58:01.854Z,2.35
2023-05-20T18:00:28.860Z,2.30
2023-05-20T18:02:58.297Z,2.50
2023-05-20T18:05:25.074Z,2.25
2023-05-20T18:07:53.363Z,2.50
2023-05-20T18:10:21.366Z,2.45
2023-05-20T18:12:48.090Z,2.15
2023-05-20T18:15:16.956Z,2.70
2023-05-20T18:17:44.956Z,2.72
2023-05-20T18:20:13.280Z,2.67
2023-05-20T18:22:45.199Z,2.25
2023-05-20T18:25:15.486Z,2.65
2023-05-20T18:27:42.860Z,3.17
2023-05-20T18:30:10.441Z,2.67
2023-05-20T18:32:38.504Z,2.63
2023-05-20T18:35:05.574Z,2.95
2023-05-20T18:37:33.077Z,2.60
2023-05-20T18:40:01.098Z,2.30
2023-05-20T18:42:29.092Z,2.42
2023-05-20T18:44:55.793Z,2.67
2023-05-20T18:47:22.681Z,2.42
2023-05-20T18:49:49.376Z,2.10
2023-05-20T18:52:16.345Z,2.70
2023-05-20T18:54:43.014Z,2.00
2023-05-20T18:57:10.397Z,2.20
2023-05-20T18:59:38.292Z,2.22
2023-05-20T19:02:05.264Z,2.40
2023-05-20T19:04:31.961Z,2.25
2023-05-20T19:06:59.239Z,1.92
2023-05-20T19:09:26.075Z,2.30
2023-05-20T19:11:56.705Z,2.25
2023-05-20T19:14:24.473Z,2.28
2023-05-20T19:16:52.803Z,2.30
2023-05-20T19:19:20.864Z,2.10
2023-05-20T19:21:48.890Z,2.28
2023-05-20T19:24:17.841Z,2.03
2023-05-20T19:26:44.593Z,2.10
2023-05-20T19:29:11.896Z,1.95
2023-05-20T19:31:41.494Z,2.00
2023-05-20T19:34:08.167Z,2.03
2023-05-20T19:36:36.182Z,2.70
2023-05-20T19:39:02.831Z,2.15
2023-05-20T19:41:29.563Z,2.08
2023-05-20T19:43:56.245Z,1.92
2023-05-20T19:46:23.042Z,2.60
2023-05-20T19:48:49.751Z,1.95
2023-05-20T19:51:16.495Z,2.10
2023-05-20T19:53:43.151Z,1.77
2023-05-20T19:56:09.956Z,1.85
2023-05-20T19:58:37.217Z,1.80
2023-05-20T20:01:04.846Z,2.22
2023-05-20T20:03:31.646Z,1.73
2023-05-20T20:05:58.383Z,1.95
2023-05-20T20:08:25.106Z,1.35
2023-05-20T20:10:53.189Z,1.98
2023-05-20T20:13:19.823Z,1.45
2023-05-20T20:15:46.940Z,1.75
2023-05-20T20:18:13.642Z,1.60
2023-05-20T20:20:40.701Z,1.80
2023-05-20T20:23:09.470Z,1.75
2023-05-20T20:25:39.983Z,1.45
2023-05-20T20:28:08.124Z,2.10
2023-05-20T20:30:36.100Z,1.45
2023-05-20T20:33:06.469Z,1.77
2023-05-20T20:35:34.306Z,1.92
2023-05-20T20:38:01.512Z,1.67
2023-05-20T20:40:28.493Z,1.63
2023-05-20T20:42:58.429Z,1.55
2023-05-20T20:45:26.481Z,1.60
2023-05-20T20:47:54.757Z,1.60
2023-05-20T20:50:23.023Z,1.63
2023-05-20T20:52:49.679Z,1.80
2023-05-20T20:55:17.986Z,1.40
2023-05-20T20:57:46.563Z,1.55
2023-05-20T21:00:17.641Z,1.77
2023-05-20T21:02:44.469Z,2.08
2023-05-20T21:05:11.216Z,2.42
2023-05-20T21:07:39.201Z,1.98
2023-05-20T21:10:09.643Z,1.40
2023-05-20T21:12:37.505Z,1.40
2023-05-20T21:15:05.772Z,1.40
2023-05-20T21:17:33.812Z,1.52
2023-05-20T21:20:00.472Z,1.92
2023-05-20T21:22:28.338Z,1.70
2023-05-20T21:24:56.324Z,1.30
2023-05-20T21:27:22.965Z,1.50
2023-05-20T21:29:51.974Z,1.88
2023-05-20T21:32:18.800Z,1.63
2023-05-20T21:34:45.850Z,1.40
2023-05-20T21:37:13.783Z,1.40
2023-05-20T21:39:41.653Z,1.20
2023-05-20T21:42:09.936Z,1.58
2023-05-20T21:44:36.594Z,1.40
2023-05-20T21:47:04.472Z,1.95
2023-05-20T21:49:31.169Z,1.35
2023-05-20T21:51:57.805Z,1.40
2023-05-20T21:54:25.868Z,1.58
2023-05-20T21:56:53.077Z,1.63
2023-05-20T21:59:19.766Z,1.23
2023-05-20T22:01:46.525Z,1.70
2023-05-20T22:04:13.334Z,1.70
2023-05-20T22:06:41.393Z,1.40
2023-05-20T22:09:08.041Z,1.58
2023-05-20T22:11:34.672Z,1.45
2023-05-20T22:14:02.796Z,1.77
2023-05-20T22:16:30.190Z,1.58
2023-05-20T22:18:58.594Z,1.58
2023-05-20T22:21:25.746Z,1.70
2023-05-20T22:23:54.183Z,1.92
2023-05-20T22:26:20.955Z,2.38
2023-05-20T22:28:47.675Z,1.38
2023-05-20T22:31:14.347Z,1.55
2023-05-20T22:33:41.552Z,1.35
2023-05-20T22:36:10.703Z,1.60
2023-05-20T22:38:38.909Z,1.45
2023-05-20T22:41:05.690Z,1.30
2023-05-20T22:43:33.533Z,1.80
2023-05-20T22:46:00.273Z,1.67
2023-05-20T22:48:26.973Z,1.60
2023-05-20T22:50:54.211Z,1.45
2023-05-20T22:53:20.918Z,1.95
2023-05-20T22:55:47.982Z,1.67
2023-05-20T22:58:16.984Z,1.45
2023-05-20T23:00:44.587Z,1.77
2023-05-20T23:03:12.166Z,2.00
2023-05-20T23:05:38.981Z,1.70
2023-05-20T23:08:05.693Z,2.35
2023-05-20T23:10:32.413Z,1.80
2023-05-20T23:12:59.042Z,1.73
2023-05-20T23:15:25.822Z,1.33
2023-05-20T23:17:53.835Z,1.80
2023-05-20T23:20:22.293Z,1.58
2023-05-20T23:22:50.311Z,1.90
2023-05-20T23:25:18.359Z,1.52
2023-05-20T23:27:45.024Z,2.40
2023-05-20T23:30:13.175Z,1.73
2023-05-20T23:32:39.979Z,1.98
2023-05-20T23:35:07.365Z,2.13
2023-05-20T23:37:34.582Z,1.65
2023-05-20T23:40:01.330Z,2.00
2023-05-20T23:42:28.108Z,2.67
2023-05-20T23:44:54.762Z,1.77
2023-05-20T23:47:22.738Z,2.00
2023-05-20T23:49:49.607Z,1.40
2023-05-20T23:52:16.358Z,1.70
2023-05-20T23:54:43.054Z,1.92
2023-05-20T23:57:11.729Z,1.33
2023-05-20T23:59:38.885Z,1.70
